createdAt,value
2023-07-10T00:00:59.768Z,993.63
2023-07-10T00:01:59.745Z,993.65
2023-07-10T00:02:59.804Z,993.66
2023-07-10T00:03:59.788Z,993.64
2023-07-10T00:04:59.726Z,993.64
2023-07-10T00:05:59.767Z,993.67
2023-07-10T00:06:59.733Z,993.68
2023-07-10T00:07:59.758Z,993.66
2023-07-10T00:08:59.706Z,993.69
2023-07-10T00:09:59.715Z,993.61
2023-07-10T00:10:59.757Z,993.63
2023-07-10T00:11:59.700Z,993.61
2023-07-10T00:12:59.730Z,993.57
2023-07-10T00:13:59.741Z,993.60
2023-07-10T00:14:59.698Z,993.58
2023-07-10T00:15:59.707Z,993.54
2023-07-10T00:16:59.769Z,993.56
2023-07-10T00:17:59.738Z,993.57
2023-07-10T00:18:59.685Z,993.56
2023-07-10T00:19:59.712Z,993.57
2023-07-10T00:20:59.683Z,993.53
2023-07-10T00:21:59.676Z,993.59
2023-07-10T00:22:59.872Z,993.55
2023-07-10T00:23:59.684Z,993.56
2023-07-10T00:24:59.668Z,993.54
2023-07-10T00:25:59.659Z,993.55
2023-07-10T00:26:59.680Z,993.52
2023-07-10T00:27:59.663Z,993.56
2023-07-10T00:28:59.683Z,993.54
2023-07-10T00:29:59.683Z,993.56
2023-07-10T00:30:59.665Z,993.57
2023-07-10T00:31:59.671Z,993.56
2023-07-10T00:32:59.740Z,993.58
2023-07-10T00:33:59.670Z,993.60
2023-07-10T00:34:59.697Z,993.60
2023-07-10T00:35:59.677Z,993.62
2023-07-10T00:36:59.671Z,993.62
2023-07-10T00:37:59.645Z,993.64
2023-07-10T00:38:59.662Z,993.58
2023-07-10T00:39:59.645Z,993.58
2023-07-10T00:40:59.661Z,993.57
2023-07-10T00:41:59.636Z,993.57
2023-07-10T00:42:59.670Z,993.56
2023-07-10T00:43:59.626Z,993.62
2023-07-10T00:44:59.665Z,993.61
2023-07-10T00:45:59.637Z,993.61
2023-07-10T00:46:59.733Z,993.59
2023-07-10T00:47:59.692Z,993.57
2023-07-10T00:48:59.627Z,993.54
2023-07-10T00:49:59.610Z,993.48
2023-07-10T00:50:59.595Z,993.51
2023-07-10T00:51:59.624Z,993.49
2023-07-10T00:52:59.606Z,993.47
2023-07-10T00:53:59.607Z,993.43
2023-07-10T00:54:59.622Z,993.43
2023-07-10T00:55:59.618Z,993.43
2023-07-10T00:56:59.606Z,993.43
2023-07-10T00:57:59.586Z,993.43
2023-07-10T00:58:59.813Z,993.44
2023-07-10T00:59:59.589Z,993.44
2023-07-10T01:00:59.643Z,993.45
2023-07-10T01:01:59.573Z,993.46
2023-07-10T01:02:59.593Z,993.46
2023-07-10T01:03:59.608Z,993.44
2023-07-10T01:04:59.562Z,993.43
2023-07-10T01:05:59.589Z,993.47
2023-07-10T01:06:59.580Z,993.49
2023-07-10T01:07:59.602Z,993.45
2023-07-10T01:08:59.554Z,993.41
2023-07-10T01:09:59.588Z,993.42
2023-07-10T01:10:59.559Z,993.42
2023-07-10T01:11:59.567Z,993.41
2023-07-10T01:12:59.537Z,993.42
2023-07-10T01:13:59.584Z,993.41
2023-07-10T01:14:59.692Z,993.41
2023-07-10T01:15:59.574Z,993.37
2023-07-10T01:16:59.661Z,993.34
2023-07-10T01:17:59.553Z,993.34
2023-07-10T01:18:59.498Z,993.31
2023-07-10T01:19:59.535Z,993.30
2023-07-10T01:20:59.533Z,993.34
2023-07-10T01:21:59.507Z,993.30
2023-07-10T01:22:59.507Z,993.31
2023-07-10T01:23:59.503Z,993.29
2023-07-10T01:24:59.518Z,993.28
2023-07-10T01:25:59.520Z,993.28
2023-07-10T01:26:59.515Z,993.31
2023-07-10T01:27:59.498Z,993.28
2023-07-10T01:28:59.531Z,993.32
2023-07-10T01:29:59.475Z,993.30
2023-07-10T01:30:59.742Z,993.32
2023-07-10T01:31:59.483Z,993.29
2023-07-10T01:32:59.509Z,993.33
2023-07-10T01:33:59.490Z,993.33
2023-07-10T01:34:59.457Z,993.32
2023-07-10T01:35:59.494Z,993.31
2023-07-10T01:36:59.473Z,993.27
2023-07-10T01:37:59.475Z,993.31
2023-07-10T01:38:59.468Z,993.29
2023-07-10T01:39:59.458Z,993.28
2023-07-10T01:40:59.495Z,993.23
2023-07-10T01:41:59.462Z,993.23
2023-07-10T01:42:59.443Z,993.23
2023-07-10T01:43:59.445Z,993.19
2023-07-10T01:44:59.427Z,993.19
2023-07-10T01:45:59.460Z,993.18
2023-07-10T01:46:59.503Z,993.15
2023-07-10T01:47:59.649Z,993.20
2023-07-10T01:48:59.478Z,993.14
2023-07-10T01:49:59.439Z,993.16
2023-07-10T01:50:59.411Z,993.16
2023-07-10T01:51:59.427Z,993.14
2023-07-10T01:52:59.404Z,993.13
2023-07-10T01:53:59.400Z,993.11
2023-07-10T01:54:59.380Z,993.11
2023-07-10T01:55:59.387Z,993.09
2023-07-10T01:56:59.369Z,993.11
2023-07-10T01:57:59.411Z,993.07
2023-07-10T01:58:59.396Z,993.08
2023-07-10T01:59:59.393Z,993.09
2023-07-10T02:00:59.384Z,993.08
2023-07-10T02:01:59.454Z,993.09
2023-07-10T02:02:59.498Z,993.09
2023-07-10T02:03:59.486Z,993.07
2023-07-10T02:04:59.394Z,993.08
2023-07-10T02:05:59.379Z,993.10
2023-07-10T02:06:59.335Z,993.06
2023-07-10T02:07:59.365Z,993.07
2023-07-10T02:08:59.352Z,993.04
2023-07-10T02:09:59.330Z,993.02
2023-07-10T02:10:59.382Z,993.05
2023-07-10T02:11:59.335Z,993.03
2023-07-10T02:12:59.322Z,993.03
2023-07-10T02:13:59.403Z,993.05
2023-07-10T02:14:59.358Z,993.03
2023-07-10T02:15:59.543Z,993.01
2023-07-10T02:16:59.402Z,992.99
2023-07-10T02:17:59.406Z,992.97
2023-07-10T02:18:59.360Z,992.99
2023-07-10T02:19:59.332Z,992.97
2023-07-10T02:20:59.314Z,993.00
2023-07-10T02:21:59.313Z,993.01
2023-07-10T02:22:59.318Z,993.02
2023-07-10T02:23:59.304Z,993.03
2023-07-10T02:24:59.321Z,993.07
2023-07-10T02:25:59.289Z,993.08
2023-07-10T02:26:59.281Z,993.12
2023-07-10T02:27:59.485Z,993.13
2023-07-10T02:28:59.315Z,993.14
2023-07-10T02:29:59.264Z,993.12
2023-07-10T02:30:59.280Z,993.16
2023-07-10T02:31:59.359Z,993.14
2023-07-10T02:32:59.347Z,993.14
2023-07-10T02:33:59.307Z,993.18
2023-07-10T02:34:59.277Z,993.20
2023-07-10T02:35:59.235Z,993.16
2023-07-10T02:36:59.252Z,993.18
2023-07-10T02:37:59.238Z,993.21
2023-07-10T02:38:59.252Z,993.18
2023-07-10T02:39:59.265Z,993.12
2023-07-10T02:40:59.214Z,993.13
2023-07-10T02:41:59.235Z,993.12
2023-07-10T02:42:59.236Z,993.15
2023-07-10T02:43:59.226Z,993.14
2023-07-10T02:44:59.211Z,993.15
2023-07-10T02:45:59.228Z,993.20
2023-07-10T02:46:59.236Z,993.17
2023-07-10T02:47:59.262Z,993.18
2023-07-10T02:48:59.203Z,993.19
2023-07-10T02:49:59.190Z,993.22
2023-07-10T02:50:59.198Z,993.21
2023-07-10T02:51:59.215Z,993.24
2023-07-10T02:52:59.222Z,993.23
2023-07-10T02:53:59.225Z,993.26
2023-07-10T02:54:59.159Z,993.23
2023-07-10T02:55:59.174Z,993.25
2023-07-10T02:56:59.209Z,993.25
2023-07-10T02:57:59.229Z,993.26
2023-07-10T02:58:59.178Z,993.24
2023-07-10T02:59:59.200Z,993.28
2023-07-10T03:00:59.245Z,993.29
2023-07-10T03:01:59.169Z,993.24
2023-07-10T03:02:59.191Z,993.24
2023-07-10T03:03:59.135Z,993.23
2023-07-10T03:04:59.155Z,993.17
2023-07-10T03:05:59.138Z,993.18
2023-07-10T03:06:59.773Z,993.10
2023-07-10T03:07:59.132Z,993.11
2023-07-10T03:08:59.169Z,993.11
2023-07-10T03:09:59.115Z,993.10
2023-07-10T03:10:59.145Z,993.09
2023-07-10T03:11:59.129Z,993.11
2023-07-10T03:12:59.160Z,993.12
2023-07-10T03:13:59.157Z,993.09
2023-07-10T03:14:59.144Z,993.13
2023-07-10T03:15:59.958Z,993.11
2023-07-10T03:16:59.107Z,993.11
2023-07-10T03:17:59.107Z,993.11
2023-07-10T03:18:59.093Z,993.07
2023-07-10T03:19:59.086Z,993.03
2023-07-10T03:20:59.107Z,993.06
2023-07-10T03:21:59.092Z,993.05
2023-07-10T03:22:59.102Z,993.09
2023-07-10T03:23:59.080Z,993.10
2023-07-10T03:24:59.101Z,993.13
2023-07-10T03:25:59.065Z,993.17
2023-07-10T03:26:59.060Z,993.22
2023-07-10T03:27:59.064Z,993.34
2023-07-10T03:28:59.075Z,993.52
2023-07-10T03:29:59.077Z,993.64
2023-07-10T03:30:59.042Z,993.68
2023-07-10T03:31:59.047Z,993.68
2023-07-10T03:32:59.070Z,993.65
2023-07-10T03:33:59.026Z,993.63
2023-07-10T03:34:59.049Z,993.47
2023-07-10T03:35:59.229Z,993.38
2023-07-10T03:36:59.031Z,993.42
2023-07-10T03:37:59.025Z,993.50
2023-07-10T03:38:59.068Z,993.54
2023-07-10T03:39:59.026Z,993.58
2023-07-10T03:40:59.008Z,993.61
2023-07-10T03:41:59.013Z,993.63
2023-07-10T03:42:59.037Z,993.61
2023-07-10T03:43:58.996Z,993.58
2023-07-10T03:44:59.002Z,993.57
2023-07-10T03:45:59.043Z,993.52
2023-07-10T03:46:59.034Z,993.50
2023-07-10T03:47:59.052Z,993.50
2023-07-10T03:48:58.981Z,993.52
2023-07-10T03:49:58.993Z,993.52
2023-07-10T03:50:58.989Z,993.54
2023-07-10T03:51:58.967Z,993.65
2023-07-10T03:52:58.975Z,993.68
2023-07-10T03:53:59.183Z,993.68
2023-07-10T03:54:58.999Z,993.73
2023-07-10T03:55:58.973Z,993.74
2023-07-10T03:56:58.931Z,993.76
2023-07-10T03:57:58.941Z,993.72
2023-07-10T03:58:58.969Z,993.66
2023-07-10T03:59:58.933Z,993.61
2023-07-10T04:01:01.021Z,993.54
2023-07-10T04:01:58.911Z,993.52
2023-07-10T04:02:58.994Z,993.51
2023-07-10T04:03:58.937Z,993.51
2023-07-10T04:04:58.908Z,993.54
2023-07-10T04:05:58.896Z,993.48
2023-07-10T04:06:58.940Z,993.52
2023-07-10T04:07:58.913Z,993.52
2023-07-10T04:08:58.908Z,993.55
2023-07-10T04:09:58.883Z,993.56
2023-07-10T04:10:58.939Z,993.55
2023-07-10T04:11:58.897Z,993.52
2023-07-10T04:12:58.901Z,993.53
2023-07-10T04:13:58.912Z,993.54
2023-07-10T04:14:58.880Z,993.52
2023-07-10T04:15:58.866Z,993.53
2023-07-10T04:16:58.877Z,993.48
2023-07-10T04:17:58.874Z,993.44
2023-07-10T04:18:58.842Z,993.41
2023-07-10T04:19:58.871Z,993.42
2023-07-10T04:20:58.866Z,993.38
2023-07-10T04:21:58.841Z,993.37
2023-07-10T04:22:58.835Z,993.44
2023-07-10T04:23:58.869Z,993.39
2023-07-10T04:24:58.807Z,993.34
2023-07-10T04:25:58.817Z,993.33
2023-07-10T04:26:58.848Z,993.31
2023-07-10T04:27:58.804Z,993.32
2023-07-10T04:28:58.820Z,993.27
2023-07-10T04:29:58.815Z,993.30
2023-07-10T04:30:58.877Z,993.25
2023-07-10T04:31:58.808Z,993.26
2023-07-10T04:32:58.885Z,993.31
2023-07-10T04:33:58.981Z,993.33
2023-07-10T04:34:58.782Z,993.32
2023-07-10T04:35:58.815Z,993.25
2023-07-10T04:36:58.780Z,993.22
2023-07-10T04:37:58.764Z,993.19
2023-07-10T04:38:58.997Z,993.25
2023-07-10T04:39:58.791Z,993.35
2023-07-10T04:40:58.788Z,993.38
2023-07-10T04:41:58.773Z,993.31
2023-07-10T04:42:58.778Z,993.28
2023-07-10T04:43:58.778Z,993.32
2023-07-10T04:44:58.759Z,993.33
2023-07-10T04:45:58.764Z,993.31
2023-07-10T04:46:59.028Z,993.30
2023-07-10T04:47:58.822Z,993.29
2023-07-10T04:48:58.741Z,993.35
2023-07-10T04:49:58.756Z,993.31
2023-07-10T04:50:58.731Z,993.30
2023-07-10T04:51:58.711Z,993.26
2023-07-10T04:52:58.723Z,993.28
2023-07-10T04:53:58.713Z,993.27
2023-07-10T04:54:58.711Z,993.27
2023-07-10T04:55:58.734Z,993.20
2023-07-10T04:56:58.929Z,993.22
2023-07-10T04:57:58.706Z,993.18
2023-07-10T04:58:58.746Z,993.18
2023-07-10T04:59:58.924Z,993.18
2023-07-10T05:00:58.686Z,993.11
2023-07-10T05:01:58.739Z,993.09
2023-07-10T05:02:58.689Z,993.05
2023-07-10T05:03:58.800Z,993.03
2023-07-10T05:04:58.761Z,993.04
2023-07-10T05:05:58.709Z,993.03
2023-07-10T05:06:58.670Z,993.03
2023-07-10T05:07:58.689Z,992.99
2023-07-10T05:08:58.676Z,993.00
2023-07-10T05:09:58.652Z,992.99
2023-07-10T05:10:58.654Z,992.95
2023-07-10T05:11:58.649Z,992.96
2023-07-10T05:12:58.630Z,992.90
2023-07-10T05:13:58.743Z,992.87
2023-07-10T05:14:58.672Z,992.85
2023-07-10T05:15:58.684Z,992.83
2023-07-10T05:16:58.635Z,992.83
2023-07-10T05:17:58.699Z,992.81
2023-07-10T05:18:58.615Z,992.83
2023-07-10T05:19:58.662Z,992.79
2023-07-10T05:20:58.601Z,992.76
2023-07-10T05:21:58.623Z,992.71
2023-07-10T05:23:00.657Z,992.71
2023-07-10T05:23:58.631Z,992.68
2023-07-10T05:24:58.629Z,992.70
2023-07-10T05:25:58.586Z,992.68
2023-07-10T05:26:58.585Z,992.70
2023-07-10T05:27:58.609Z,992.69
2023-07-10T05:28:58.587Z,992.67
2023-07-10T05:29:58.595Z,992.69
2023-07-10T05:30:58.591Z,992.64
2023-07-10T05:31:58.652Z,992.65
2023-07-10T05:32:58.626Z,992.66
2023-07-10T05:33:58.578Z,992.71
2023-07-10T05:34:58.786Z,992.64
2023-07-10T05:35:58.561Z,992.62
2023-07-10T05:36:58.818Z,992.63
2023-07-10T05:37:58.561Z,992.60
2023-07-10T05:38:58.565Z,992.61
2023-07-10T05:39:58.571Z,992.62
2023-07-10T05:40:58.550Z,992.66
2023-07-10T05:41:58.575Z,992.66
2023-07-10T05:42:58.567Z,992.70
2023-07-10T05:43:58.541Z,992.71
2023-07-10T05:44:58.517Z,992.73
2023-07-10T05:45:58.554Z,992.73
2023-07-10T05:46:58.561Z,992.71
2023-07-10T05:47:58.511Z,992.69
2023-07-10T05:48:58.510Z,992.72
2023-07-10T05:49:58.518Z,992.75
2023-07-10T05:50:58.567Z,992.78
2023-07-10T05:51:58.518Z,992.74
2023-07-10T05:52:58.500Z,992.74
2023-07-10T05:53:58.526Z,992.73
2023-07-10T05:54:58.527Z,992.78
2023-07-10T05:55:58.486Z,992.75
2023-07-10T05:56:58.509Z,992.77
2023-07-10T05:57:58.477Z,992.76
2023-07-10T05:58:58.480Z,992.81
2023-07-10T05:59:58.472Z,992.77
2023-07-10T06:00:58.471Z,992.82
2023-07-10T06:01:58.504Z,992.85
2023-07-10T06:02:58.573Z,992.94
2023-07-10T06:03:58.488Z,992.98
2023-07-10T06:04:58.458Z,992.98
2023-07-10T06:05:58.473Z,992.98
2023-07-10T06:06:58.449Z,992.95
2023-07-10T06:07:58.448Z,992.96
2023-07-10T06:08:58.481Z,993.06
2023-07-10T06:09:58.442Z,993.00
2023-07-10T06:10:58.432Z,993.01
2023-07-10T06:11:58.444Z,993.03
2023-07-10T06:12:58.431Z,993.03
2023-07-10T06:13:58.548Z,993.00
2023-07-10T06:14:58.628Z,993.00
2023-07-10T06:15:58.439Z,992.93
2023-07-10T06:16:58.421Z,992.94
2023-07-10T06:17:58.448Z,993.01
2023-07-10T06:18:58.442Z,992.98
2023-07-10T06:19:58.404Z,993.00
2023-07-10T06:20:58.397Z,992.98
2023-07-10T06:21:58.396Z,993.01
2023-07-10T06:22:58.425Z,992.96
2023-07-10T06:23:58.429Z,992.96
2023-07-10T06:24:58.443Z,992.93
2023-07-10T06:25:58.375Z,992.92
2023-07-10T06:26:58.406Z,992.87
2023-07-10T06:27:58.410Z,992.82
2023-07-10T06:28:58.410Z,992.73
2023-07-10T06:29:58.381Z,992.67
2023-07-10T06:30:58.826Z,992.73
2023-07-10T06:31:58.481Z,992.74
2023-07-10T06:32:58.450Z,992.78
2023-07-10T06:33:58.371Z,992.82
2023-07-10T06:34:58.375Z,992.79
2023-07-10T06:35:58.355Z,992.82
2023-07-10T06:36:58.356Z,992.85
2023-07-10T06:37:58.360Z,992.89
2023-07-10T06:38:58.359Z,992.89
2023-07-10T06:39:58.355Z,992.94
2023-07-10T06:40:58.358Z,992.99
2023-07-10T06:41:58.330Z,992.96
2023-07-10T06:42:58.362Z,993.02
2023-07-10T06:43:58.338Z,993.07
2023-07-10T06:44:58.331Z,993.04
2023-07-10T06:45:58.467Z,993.05
2023-07-10T06:46:58.550Z,993.04
2023-07-10T06:47:58.386Z,993.05
2023-07-10T06:48:58.313Z,993.06
2023-07-10T06:49:58.323Z,993.08
2023-07-10T06:50:58.331Z,993.11
2023-07-10T06:51:58.521Z,993.13
2023-07-10T06:52:59.832Z,993.10
2023-07-10T06:53:58.321Z,993.13
2023-07-10T06:54:58.338Z,993.14
2023-07-10T06:55:58.299Z,993.11
2023-07-10T06:56:58.297Z,993.09
2023-07-10T06:57:58.521Z,993.07
2023-07-10T06:58:58.300Z,993.05
2023-07-10T06:59:58.316Z,993.05
2023-07-10T07:00:58.568Z,993.03
2023-07-10T07:01:58.317Z,993.09
2023-07-10T07:02:58.504Z,993.08
2023-07-10T07:03:58.409Z,993.08
2023-07-10T07:04:58.293Z,993.15
2023-07-10T07:05:58.294Z,993.16
2023-07-10T07:06:58.333Z,993.15
2023-07-10T07:07:58.309Z,993.17
2023-07-10T07:08:58.287Z,993.16
2023-07-10T07:09:58.287Z,993.14
2023-07-10T07:10:58.269Z,993.16
2023-07-10T07:11:58.319Z,993.17
2023-07-10T07:12:58.284Z,993.18
2023-07-10T07:13:58.276Z,993.17
2023-07-10T07:14:58.305Z,993.11
2023-07-10T07:15:58.308Z,993.17
2023-07-10T07:16:58.281Z,993.18
2023-07-10T07:17:58.287Z,993.24
2023-07-10T07:19:10.434Z,993.26
2023-07-10T07:19:58.256Z,993.24
2023-07-10T07:20:58.263Z,993.19
2023-07-10T07:21:58.234Z,993.20
2023-07-10T07:22:58.274Z,993.21
2023-07-10T07:23:58.240Z,993.25
2023-07-10T07:24:58.246Z,993.24
2023-07-10T07:25:58.251Z,993.28
2023-07-10T07:26:58.287Z,993.26
2023-07-10T07:27:58.249Z,993.28
2023-07-10T07:28:58.265Z,993.30
2023-07-10T07:29:58.226Z,993.34
2023-07-10T07:30:58.249Z,993.37
2023-07-10T07:31:58.224Z,993.33
2023-07-10T07:32:58.271Z,993.30
2023-07-10T07:33:58.224Z,993.33
2023-07-10T07:34:58.258Z,993.31
2023-07-10T07:35:59.311Z,993.29
2023-07-10T07:36:58.251Z,993.30
2023-07-10T07:37:58.242Z,993.29
2023-07-10T07:38:58.255Z,993.31
2023-07-10T07:39:58.214Z,993.33
2023-07-10T07:40:58.237Z,993.27
2023-07-10T07:41:58.227Z,993.26
2023-07-10T07:42:58.233Z,993.23
2023-07-10T07:43:58.207Z,993.27
2023-07-10T07:44:58.212Z,993.28
2023-07-10T07:45:58.229Z,993.25
2023-07-10T07:46:58.251Z,993.29
2023-07-10T07:47:58.286Z,993.31
2023-07-10T07:48:58.229Z,993.37
2023-07-10T07:49:58.205Z,993.41
2023-07-10T07:50:58.212Z,993.45
2023-07-10T07:51:58.223Z,993.44
2023-07-10T07:52:58.209Z,993.44
2023-07-10T07:53:58.226Z,993.47
2023-07-10T07:54:58.433Z,993.44
2023-07-10T07:55:58.231Z,993.40
2023-07-10T07:56:58.204Z,993.39
2023-07-10T07:57:58.223Z,993.40
2023-07-10T07:58:58.226Z,993.42
2023-07-10T07:59:58.215Z,993.34
2023-07-10T08:00:58.243Z,993.35
2023-07-10T08:01:58.218Z,993.39
2023-07-10T08:02:58.294Z,993.40
2023-07-10T08:03:58.328Z,993.39
2023-07-10T08:04:58.355Z,993.38
2023-07-10T08:05:58.289Z,993.38
2023-07-10T08:06:58.217Z,993.40
2023-07-10T08:07:58.258Z,993.42
2023-07-10T08:08:58.235Z,993.42
2023-07-10T08:09:58.244Z,993.42
2023-07-10T08:10:58.272Z,993.48
2023-07-10T08:11:58.221Z,993.42
2023-07-10T08:12:58.236Z,993.40
2023-07-10T08:13:58.305Z,993.40
2023-07-10T08:14:58.240Z,993.38
2023-07-10T08:15:58.240Z,993.38
2023-07-10T08:16:58.295Z,993.40
2023-07-10T08:17:58.255Z,993.38
2023-07-10T08:18:58.215Z,993.38
2023-07-10T08:19:58.252Z,993.39
2023-07-10T08:20:58.221Z,993.42
2023-07-10T08:21:58.233Z,993.36
2023-07-10T08:22:58.209Z,993.35
2023-07-10T08:23:58.238Z,993.37
2023-07-10T08:24:58.218Z,993.42
2023-07-10T08:25:58.222Z,993.38
2023-07-10T08:26:58.282Z,993.40
2023-07-10T08:27:58.224Z,993.35
2023-07-10T08:28:58.266Z,993.38
2023-07-10T08:29:58.249Z,993.36
2023-07-10T08:30:58.461Z,993.37
2023-07-10T08:31:58.244Z,993.43
2023-07-10T08:32:58.315Z,993.40
2023-07-10T08:33:58.233Z,993.41
2023-07-10T08:34:58.238Z,993.38
2023-07-10T08:35:58.249Z,993.38
2023-07-10T08:36:58.230Z,993.34
2023-07-10T08:37:58.244Z,993.38
2023-07-10T08:38:58.707Z,993.42
2023-07-10T08:39:58.250Z,993.44
2023-07-10T08:40:58.333Z,993.46
2023-07-10T08:41:58.317Z,993.41
2023-07-10T08:43:58.495Z,993.44
2023-07-10T08:44:58.327Z,993.47
2023-07-10T08:45:58.388Z,993.54
2023-07-10T08:46:58.348Z,993.54
2023-07-10T08:47:58.374Z,993.52
2023-07-10T08:48:58.264Z,993.52
2023-07-10T08:49:58.312Z,993.55
2023-07-10T08:50:58.252Z,993.51
2023-07-10T08:51:58.298Z,993.54
2023-07-10T08:52:58.238Z,993.53
2023-07-10T08:53:58.262Z,993.58
2023-07-10T08:54:58.236Z,993.48
2023-07-10T08:55:58.261Z,993.53
2023-07-10T08:56:58.277Z,993.58
2023-07-10T08:57:58.252Z,993.60
2023-07-10T08:58:58.386Z,993.63
2023-07-10T08:59:58.276Z,993.65
2023-07-10T09:00:58.260Z,993.61
2023-07-10T09:01:58.420Z,993.61
2023-07-10T09:02:58.330Z,993.71
2023-07-10T09:03:58.285Z,993.76
2023-07-10T09:04:58.271Z,993.66
2023-07-10T09:05:58.289Z,993.68
2023-07-10T09:06:58.262Z,993.70
2023-07-10T09:07:58.249Z,993.73
2023-07-10T09:08:58.263Z,993.69
2023-07-10T09:09:58.278Z,993.78
2023-07-10T09:10:58.267Z,993.76
2023-07-10T09:11:58.252Z,993.76
2023-07-10T09:12:58.272Z,993.77
2023-07-10T09:13:58.289Z,993.80
2023-07-10T09:14:58.282Z,993.79
2023-07-10T09:15:58.315Z,993.83
2023-07-10T09:16:58.399Z,993.81
2023-07-10T09:17:58.335Z,993.82
2023-07-10T09:18:58.275Z,993.89
2023-07-10T09:19:58.302Z,993.77
2023-07-10T09:20:58.314Z,993.69
2023-07-10T09:21:58.285Z,993.69
2023-07-10T09:22:58.298Z,993.68
2023-07-10T09:23:58.291Z,993.85
2023-07-10T09:24:58.299Z,993.85
2023-07-10T09:25:58.292Z,993.84
2023-07-10T09:26:58.291Z,993.89
2023-07-10T09:27:58.319Z,993.88
2023-07-10T09:28:58.287Z,993.94
2023-07-10T09:29:58.305Z,993.99
2023-07-10T09:30:58.296Z,993.91
2023-07-10T09:31:58.355Z,993.99
2023-07-10T09:32:58.365Z,993.97
2023-07-10T09:33:58.325Z,993.97
2023-07-10T09:34:58.318Z,993.98
2023-07-10T09:35:58.327Z,993.97
2023-07-10T09:36:58.361Z,993.97
2023-07-10T09:37:58.337Z,993.98
2023-07-10T09:38:58.353Z,994.02
2023-07-10T09:39:58.355Z,994.14
2023-07-10T09:40:58.369Z,994.15
2023-07-10T09:41:58.318Z,994.09
2023-07-10T09:42:58.334Z,994.06
2023-07-10T09:43:58.345Z,994.11
2023-07-10T09:44:58.328Z,994.16
2023-07-10T09:45:58.563Z,994.14
2023-07-10T09:46:58.435Z,994.10
2023-07-10T09:47:58.362Z,993.97
2023-07-10T09:48:58.327Z,993.95
2023-07-10T09:49:58.381Z,994.02
2023-07-10T09:50:58.341Z,994.23
2023-07-10T09:51:58.362Z,994.14
2023-07-10T09:52:58.352Z,994.16
2023-07-10T09:53:58.398Z,994.25
2023-07-10T09:54:58.350Z,994.26
2023-07-10T09:55:58.338Z,994.24
2023-07-10T09:56:58.347Z,994.23
2023-07-10T09:57:58.387Z,994.28
2023-07-10T09:58:58.338Z,994.29
2023-07-10T09:59:58.345Z,994.27
2023-07-10T10:00:58.344Z,994.31
2023-07-10T10:01:58.383Z,994.32
2023-07-10T10:02:58.459Z,994.36
2023-07-10T10:03:58.453Z,994.35
2023-07-10T10:04:58.354Z,994.38
2023-07-10T10:05:58.405Z,994.40
2023-07-10T10:06:58.402Z,994.42
2023-07-10T10:07:58.352Z,994.38
2023-07-10T10:08:58.371Z,994.36
2023-07-10T10:09:58.439Z,994.44
2023-07-10T10:10:58.440Z,994.39
2023-07-10T10:11:58.381Z,994.48
2023-07-10T10:12:58.385Z,994.48
2023-07-10T10:13:58.560Z,994.51
2023-07-10T10:14:58.374Z,994.61
2023-07-10T10:15:58.385Z,994.52
2023-07-10T10:16:58.360Z,994.56
2023-07-10T10:17:58.682Z,994.58
2023-07-10T10:18:58.553Z,994.61
2023-07-10T10:19:58.663Z,994.61
2023-07-10T10:20:58.377Z,994.67
2023-07-10T10:21:58.388Z,994.67
2023-07-10T10:22:58.389Z,994.66
2023-07-10T10:23:58.389Z,994.70
2023-07-10T10:24:58.370Z,994.79
2023-07-10T10:25:58.374Z,994.71
2023-07-10T10:26:58.395Z,994.74
2023-07-10T10:27:58.390Z,994.68
2023-07-10T10:28:58.376Z,994.72
2023-07-10T10:29:58.378Z,994.74
2023-07-10T10:30:58.581Z,994.72
2023-07-10T10:31:58.447Z,994.69
2023-07-10T10:32:58.394Z,994.80
2023-07-10T10:33:58.384Z,994.84
2023-07-10T10:34:58.397Z,994.73
2023-07-10T10:35:58.470Z,994.83
2023-07-10T10:36:58.411Z,994.79
2023-07-10T10:37:58.449Z,994.79
2023-07-10T10:38:58.398Z,994.81
2023-07-10T10:39:58.414Z,994.79
2023-07-10T10:40:58.424Z,994.70
2023-07-10T10:41:58.417Z,994.77
2023-07-10T10:42:58.404Z,994.83
2023-07-10T10:43:58.411Z,994.92
2023-07-10T10:44:58.441Z,994.90
2023-07-10T10:45:58.417Z,994.88
2023-07-10T10:46:58.412Z,994.86
2023-07-10T10:47:58.462Z,994.82
2023-07-10T10:48:58.429Z,994.85
2023-07-10T10:49:58.446Z,994.90
2023-07-10T10:50:58.475Z,995.04
2023-07-10T10:51:58.504Z,994.89
2023-07-10T10:52:58.436Z,994.85
2023-07-10T10:53:58.543Z,994.85
2023-07-10T10:54:58.513Z,994.89
2023-07-10T10:55:58.420Z,994.93
2023-07-10T10:56:58.442Z,994.89
2023-07-10T10:57:58.445Z,994.97
2023-07-10T10:58:58.450Z,995.00
2023-07-10T10:59:58.433Z,994.99
2023-07-10T11:00:58.449Z,994.99
2023-07-10T11:01:58.426Z,995.01
2023-07-10T11:02:58.433Z,995.02
2023-07-10T11:03:58.449Z,994.97
2023-07-10T11:04:58.446Z,995.04
2023-07-10T11:05:58.412Z,995.05
2023-07-10T11:06:58.425Z,994.94
2023-07-10T11:07:58.483Z,995.05
2023-07-10T11:08:58.469Z,995.02
2023-07-10T11:09:58.436Z,994.98
2023-07-10T11:10:58.428Z,995.05
2023-07-10T11:11:58.427Z,995.04
2023-07-10T11:12:58.452Z,995.00
2023-07-10T11:13:58.498Z,995.03
2023-07-10T11:14:58.437Z,995.00
2023-07-10T11:15:58.498Z,995.01
2023-07-10T11:16:58.431Z,995.00
2023-07-10T11:17:58.466Z,995.03
2023-07-10T11:18:58.435Z,994.93
2023-07-10T11:19:58.430Z,995.01
2023-07-10T11:20:58.452Z,994.97
2023-07-10T11:21:58.428Z,994.94
2023-07-10T11:22:58.434Z,994.85
2023-07-10T11:23:58.452Z,994.92
2023-07-10T11:24:58.451Z,994.94
2023-07-10T11:25:58.447Z,994.89
2023-07-10T11:26:58.447Z,994.99
2023-07-10T11:27:58.421Z,994.93
2023-07-10T11:29:08.047Z,994.90
2023-07-10T11:29:58.441Z,994.90
2023-07-10T11:30:58.450Z,994.85
2023-07-10T11:31:58.430Z,994.94
2023-07-10T11:32:58.534Z,994.96
2023-07-10T11:33:58.446Z,995.01
2023-07-10T11:35:07.328Z,995.03
2023-07-10T11:35:58.443Z,995.17
2023-07-10T11:36:58.434Z,995.04
2023-07-10T11:37:58.426Z,995.01
2023-07-10T11:38:58.424Z,995.11
2023-07-10T11:39:58.506Z,995.03
2023-07-10T11:40:58.437Z,995.07
2023-07-10T11:41:58.437Z,995.02
2023-07-10T11:42:58.434Z,995.04
2023-07-10T11:43:58.543Z,994.94
2023-07-10T11:44:58.430Z,994.99
2023-07-10T11:45:58.439Z,995.00
2023-07-10T11:46:58.497Z,995.02
2023-07-10T11:47:58.473Z,995.04
2023-07-10T11:48:58.456Z,995.10
2023-07-10T11:49:58.440Z,995.08
2023-07-10T11:50:58.436Z,995.09
2023-07-10T11:51:58.425Z,995.06
2023-07-10T11:52:58.428Z,994.98
2023-07-10T11:53:58.427Z,995.05
2023-07-10T11:54:58.431Z,995.07
2023-07-10T11:55:58.445Z,995.08
2023-07-10T11:56:58.434Z,995.10
2023-07-10T11:57:58.428Z,995.13
2023-07-10T11:58:58.430Z,995.10
2023-07-10T11:59:58.427Z,995.09
2023-07-10T12:00:58.482Z,995.11
2023-07-10T12:01:58.438Z,995.03
2023-07-10T12:02:58.519Z,994.97
2023-07-10T12:03:58.540Z,995.00
2023-07-10T12:04:58.440Z,994.99
2023-07-10T12:06:58.445Z,995.00
2023-07-10T12:08:01.242Z,995.00
2023-07-10T12:08:58.430Z,994.97
2023-07-10T12:09:58.428Z,994.99
2023-07-10T12:10:58.432Z,995.05
2023-07-10T12:11:58.457Z,995.02
2023-07-10T12:12:58.438Z,994.99
2023-07-10T12:13:58.466Z,994.93
2023-07-10T12:14:58.440Z,994.91
2023-07-10T12:15:58.434Z,994.90
2023-07-10T12:17:18.274Z,994.88
2023-07-10T12:17:58.502Z,994.95
2023-07-10T12:18:58.534Z,994.95
2023-07-10T12:19:58.440Z,994.91
2023-07-10T12:20:58.437Z,994.90
2023-07-10T12:21:58.468Z,994.97
2023-07-10T12:22:58.496Z,994.90
2023-07-10T12:23:58.453Z,994.97
2023-07-10T12:24:58.436Z,994.93
2023-07-10T12:25:58.437Z,994.86
2023-07-10T12:28:58.643Z,994.96
2023-07-10T12:29:58.433Z,994.94
2023-07-10T12:30:58.520Z,994.85
2023-07-10T12:31:58.473Z,994.86
2023-07-10T12:32:58.588Z,994.83